CheckWX is a tool to help pilots better visualize weather data.  It is not intended as a substitute for an official pre-flight weather briefing.

21:04:16 UTC

KLGC METAR
Lagrange-Callaway Airport
Lagrange, Georgia, USA
Current

9 mins ago

KLGC 232055Z AUTO 00000KT 10SM SCT090 32/21 A3018 RMK AO2 T03170213
Observed
May-23 @ 20:55 UTC
Visibility
10 SM
Flight Rules
VFR
Cloud Levels
  • Scattered at 9,000' AGL
Temperature
32°C / 90°F
Dewpoint
21°C / 70°F
Heat Index
36°C / 96°F
Humidity
52%
Altimeter
30.18" Hg
Pressure
1022.02 hPa
Previous

29 mins ago

KLGC 232035Z AUTO 00000KT 10SM SCT075 SCT085 32/20 A3019 RMK AO2 T03240204
Observed
May-23 @ 20:35 UTC
Visibility
10 SM
Flight Rules
VFR
Cloud Levels
  • Scattered at 7,500' AGL
  • Scattered at 8,500' AGL
Temperature
32°C / 90°F
Dewpoint
20°C / 68°F
Heat Index
34°C / 94°F
Humidity
49%
Altimeter
30.19" Hg
Pressure
1022.32 hPa
Previous

2 hours ago

KLGC 231915Z AUTO 00000KT 10SM SCT041 SCT050 SCT070 32/21 A3021 RMK AO2 T03150211
Observed
May-23 @ 19:15 UTC
Visibility
10 SM
Flight Rules
VFR
Cloud Levels
  • Scattered at 4,100' AGL
  • Scattered at 5,000' AGL
  • Scattered at 7,000' AGL
Temperature
32°C / 90°F
Dewpoint
21°C / 70°F
Heat Index
36°C / 96°F
Humidity
52%
Altimeter
30.21" Hg
Pressure
1023.02 hPa